Downing, Wisconsin
Current Conditions -  °F | °C
As of 6:15 AM on Thursday 29 Jan 2015 (Local Time) from KLUM Reporting Station
Overcast Overcast  
Wind Chill: 22°   Ceiling: 1500
Heat Index: 33°   Visibility: 7mi
Dew Point: 29°   Wind: 18mph
Humidity: 85%   Direction: 320°NW
Pressure: 29.95"   Gusts: 25mph
Location:  45.05°N, 92.13°W
Report Text: KLUM 291215Z AUTO 32016G22KT 7SM SCT010 OVC015 01/M02 A2995 RMK AO2 T00061017
Loading
Personal Weather Stations






























Interactive Weather Map New forecast layout! Learn more

10-Day Weather Forecast

Advertisements
Track Severe Weather on mobile